Impacts METAR Board INFO
IDs:

KPIT - Pittsburgh Intl, PA, US

Updated at: 1214 UTC 18 Nov 2017
Potential Impact None Slight Moderate High
Time18/00Z 18/01Z 18/02Z 18/03Z 18/04Z 18/05Z 18/06Z 18/07Z 18/08Z 18/09Z 18/10Z 18/11Z 18/12Z
VIS10 10 10 10 10 10 10 10 10 10 6 10 7
CIG-- 250 250 250 250 230 230 210 100 90 60 37 32
CoverSCTBKNOVCOVCOVCOVCOVCOVCOVCOVCOVCOVCOVC
FltCatVFRVFRVFRVFRVFRVFRVFRVFRVFRVFRVFRVFRVFR
WX--------------------RA BR-RA-RA
WDir140140140140120140150140150140100140140
WSpd4 3 3 3 3 4 6 3 5 3 3 8 5
WGst-- -- -- -- -- -- -- -- -- -- -- -- --
Raw hourly METARs
KPIT 172351Z 14004KT 10SM SCT250 04/M02 A3003 RMK AO2 SLP184 T00391022 10061 20033 58027
KPIT 180051Z 14003KT 10SM FEW150 BKN250 02/M02 A3001 RMK AO2 SLP180 T00221022
KPIT 180151Z 14003KT 10SM FEW150 OVC250 02/M02 A2998 RMK AO2 SLP170 T00171022
KPIT 180251Z 14003KT 10SM FEW150 OVC250 01/M02 A2995 RMK AO2 SLP160 T00111022 58023
KPIT 180351Z 12003KT 10SM OVC250 01/M02 A2993 RMK AO2 SLP153 T00111022
KPIT 180451Z 14004KT 10SM OVC230 00/M03 A2988 RMK AO2 SLP135 T00001028 400611006
KPIT 180551Z 15006KT 10SM OVC230 01/M02 A2984 RMK AO2 SLP120 T00111022 10033 21006 58038
KPIT 180651Z 14003KT 10SM FEW036 SCT130 OVC210 02/M02 A2981 RMK AO2 SLP109 T00171022
KPIT 180751Z 15005KT 10SM FEW033 OVC100 04/M02 A2978 RMK AO2 SLP098 T00391022
KPIT 180851Z 14003KT 10SM OVC090 04/M03 A2976 RMK AO2 SLP090 T00441028 56026
KPIT 180951Z 10003KT 6SM RA BR BKN060 OVC075 03/01 A2973 RMK AO2 RAB17 SLP082 P0010 T00280006
KPIT 181051Z 14008KT 10SM -RA BKN037 BKN046 OVC055 03/03 A2968 RMK AO2 SLP066 P0023 T00330028
KPIT 181151Z 14005KT 7SM -RA OVC032 04/04 A2969 RMK AO2 SLP068 P0017 60050 70050 T00440039 10050 20011 55022